Time;durP1;ratioP1;P1;durP2;ratioP2;P2;SDS_P1;SDS_P2;PMS_P1;PMS_P2;Temp;Humidity;BMP_temperature;BMP_pressure;BME280_temperature;BME280_humidity;BME280_pressure;Samples;Min_cycle;Max_cycle;Signal;HPM_P1;HPM_P2
2021/08/18 00:02:07;;;;;;;774.63;575.63;;;;;;;12.30;72.13;99041.78;5067724;28;20450;-66
2021/08/18 00:04:37;;;;;;;797.67;592.73;;;;;;;12.17;74.31;99035.94;5068693;28;20810;-66
2021/08/18 00:07:05;;;;;;;753.77;535.50;;;;;;;11.88;73.68;98985.09;5069008;28;20917;-66
2021/08/18 00:09:34;;;;;;;764.83;561.00;;;;;;;12.27;73.41;99044.78;5069045;28;20440;-66
2021/08/18 00:12:02;;;;;;;782.67;593.87;;;;;;;12.31;73.48;99046.16;5062327;28;20936;-66
2021/08/18 00:14:30;;;;;;;773.80;581.23;;;;;;;12.32;73.61;99042.47;5062828;28;20467;-66
2021/08/18 00:16:58;;;;;;;779.23;588.43;;;;;;;12.39;72.57;99049.75;5069154;28;20473;-69
2021/08/18 00:19:26;;;;;;;789.47;609.40;;;;;;;12.51;73.28;99057.56;5069015;28;20931;-69
2021/08/18 00:21:56;;;;;;;791.07;622.60;;;;;;;12.55;72.90;99057.09;5054191;28;20440;-69
2021/08/18 00:24:24;;;;;;;788.73;612.47;;;;;;;12.56;74.10;99053.41;5068734;28;20431;-69
2021/08/18 00:26:52;;;;;;;792.50;618.80;;;;;;;12.61;73.63;99048.38;5068991;28;20436;-69
2021/08/18 00:29:35;;;;;;;787.77;608.13;;;;;;;12.72;72.80;99048.09;5069234;28;20837;-66
2021/08/18 00:32:04;;;;;;;786.87;608.20;;;;;;;12.80;72.60;99049.16;5068929;28;20547;-66
2021/08/18 00:34:33;;;;;;;784.77;604.27;;;;;;;12.87;72.00;99058.31;5069100;28;20457;-69
2021/08/18 00:37:02;;;;;;;797.87;629.60;;;;;;;12.92;72.46;99061.38;5068770;28;20529;-66
2021/08/18 00:39:30;;;;;;;789.37;610.43;;;;;;;12.98;71.56;99055.31;5068867;28;20431;-69
2021/08/18 00:41:58;;;;;;;781.17;592.53;;;;;;;13.05;70.41;99043.72;5068459;28;20448;-69
2021/08/18 00:44:27;;;;;;;785.13;591.43;;;;;;;13.15;69.79;99040.06;5068744;28;20642;-69
2021/08/18 00:46:58;;;;;;;788.43;614.93;;;;;;;13.20;69.79;99035.91;5068416;28;20927;-69
2021/08/18 00:49:27;;;;;;;791.17;617.63;;;;;;;13.20;70.31;99021.59;5068545;28;20484;-66
2021/08/18 00:51:56;;;;;;;784.17;601.63;;;;;;;13.30;70.27;99025.84;5055230;28;20937;-66
2021/08/18 00:54:28;;;;;;;795.17;621.77;;;;;;;13.36;70.03;99018.94;5055313;28;20437;-66
2021/08/18 00:56:58;;;;;;;779.03;601.53;;;;;;;13.40;69.78;99012.19;5068760;28;20454;-66
2021/08/18 00:59:27;;;;;;;786.70;614.23;;;;;;;13.45;69.24;99009.84;5068296;28;20432;-66
2021/08/18 01:01:55;;;;;;;792.43;621.73;;;;;;;13.50;68.93;99017.47;5061227;28;20449;-66
2021/08/18 01:04:23;;;;;;;792.87;628.73;;;;;;;13.52;68.60;99005.50;5062539;28;20443;-69
2021/08/18 01:06:51;;;;;;;787.80;622.70;;;;;;;13.55;68.73;99007.03;5064773;28;20439;-69
2021/08/18 01:09:22;;;;;;;785.47;611.03;;;;;;;13.52;68.90;98994.72;5057944;28;21686;-69
2021/08/18 01:11:52;;;;;;;784.57;603.03;;;;;;;13.55;68.03;99001.63;5057670;28;20437;-69
2021/08/18 01:14:21;;;;;;;788.63;615.40;;;;;;;13.17;68.64;98939.22;5063161;28;20453;-69
2021/08/18 01:16:50;;;;;;;1503.80;826.63;;;;;;;13.48;68.81;98987.13;5068062;28;20435;-66
2021/08/18 01:19:19;;;;;;;1218.10;752.07;;;;;;;13.49;71.03;98988.81;5068254;28;20870;-66
2021/08/18 01:21:49;;;;;;;829.37;647.20;;;;;;;13.40;72.23;98979.84;5068246;28;20984;-69
2021/08/18 01:24:19;;;;;;;799.10;615.20;;;;;;;13.48;70.11;98984.44;5068015;28;20531;-69
2021/08/18 01:26:48;;;;;;;812.67;643.40;;;;;;;13.55;71.01;98977.34;5068133;28;20457;-69
2021/08/18 01:29:18;;;;;;;792.30;610.70;;;;;;;13.61;70.90;98969.44;5066330;28;20469;-69
2021/08/18 01:31:46;;;;;;;784.47;611.73;;;;;;;13.63;72.84;98971.97;5068270;28;20433;-69
2021/08/18 01:34:14;;;;;;;787.80;619.83;;;;;;;13.67;72.06;98976.00;5068293;28;20443;-69
2021/08/18 01:36:42;;;;;;;797.43;636.50;;;;;;;13.70;72.15;98977.53;5068668;28;20452;-66
2021/08/18 01:39:11;;;;;;;787.67;623.60;;;;;;;13.67;71.87;98981.41;5071694;28;20433;-66
2021/08/18 01:41:39;;;;;;;788.60;624.53;;;;;;;13.61;73.45;98974.84;5071646;28;20460;-66
2021/08/18 01:44:07;;;;;;;777.80;599.60;;;;;;;13.67;73.32;98973.31;5071738;28;20442;-66
2021/08/18 01:46:37;;;;;;;788.90;618.83;;;;;;;13.69;72.07;98957.78;5070381;28;20923;-66
2021/08/18 01:49:05;;;;;;;778.07;604.03;;;;;;;13.75;71.92;98970.59;5071963;28;20473;-66
2021/08/18 01:51:33;;;;;;;776.67;607.10;;;;;;;13.78;72.81;98964.06;5072430;28;20439;-66
2021/08/18 01:54:01;;;;;;;786.10;618.70;;;;;;;13.85;71.84;98959.66;5058283;28;20533;-67
2021/08/18 01:56:29;;;;;;;779.70;596.07;;;;;;;13.90;73.40;98966.25;5072131;28;20812;-66
2021/08/18 01:58:58;;;;;;;771.97;587.70;;;;;;;13.91;76.04;98956.28;5072206;28;20435;-66
2021/08/18 02:01:26;;;;;;;774.37;586.13;;;;;;;13.96;74.99;98964.72;5072187;28;20946;-66
2021/08/18 02:03:56;;;;;;;778.10;597.17;;;;;;;14.00;74.91;98957.97;5069948;28;20454;-67
2021/08/18 02:06:24;;;;;;;770.90;582.90;;;;;;;13.99;73.59;98951.72;5071884;28;20864;-67
2021/08/18 02:08:52;;;;;;;782.83;605.73;;;;;;;14.02;73.27;98955.94;5072070;28;20530;-66
2021/08/18 02:11:20;;;;;;;785.07;606.50;;;;;;;13.99;73.13;98954.41;5071846;28;20442;-66
2021/08/18 02:13:48;;;;;;;780.43;603.97;;;;;;;14.02;72.99;98944.28;5072056;28;20900;-66
2021/08/18 02:16:16;;;;;;;766.47;588.13;;;;;;;14.05;72.33;98946.66;5058020;28;20828;-66
2021/08/18 02:18:44;;;;;;;776.93;600.57;;;;;;;14.04;71.79;98936.88;5070311;28;20944;-67
2021/08/18 02:21:14;;;;;;;774.90;600.20;;;;;;;14.06;71.45;98942.94;5070298;28;20446;-66
2021/08/18 02:23:42;;;;;;;784.10;593.03;;;;;;;14.04;71.68;98935.00;5070505;28;20606;-66
2021/08/18 02:26:10;;;;;;;781.03;607.90;;;;;;;13.99;70.91;98922.03;5071599;28;20843;-66
2021/08/18 02:28:38;;;;;;;779.50;615.23;;;;;;;14.03;71.84;98932.47;5071649;28;20813;-66
2021/08/18 02:31:06;;;;;;;779.13;615.17;;;;;;;13.99;71.35;98932.84;5071545;28;20435;-66
2021/08/18 02:33:34;;;;;;;755.27;558.57;;;;;;;13.98;71.33;98933.84;5071462;28;20437;-66
2021/08/18 02:36:03;;;;;;;743.73;519.60;;;;;;;13.95;70.78;98936.03;5068206;28;20443;-67
2021/08/18 02:38:33;;;;;;;716.83;465.53;;;;;;;13.88;71.53;98930.50;5063614;28;20455;-67
2021/08/18 02:41:01;;;;;;;713.97;455.83;;;;;;;13.83;71.89;98924.75;5064794;28;20957;-66
2021/08/18 02:43:29;;;;;;;713.63;452.63;;;;;;;13.83;71.60;98913.97;5069810;28;20464;-66
2021/08/18 02:45:57;;;;;;;725.63;481.27;;;;;;;13.56;72.39;98874.69;5071208;28;20576;-67
2021/08/18 02:48:25;;;;;;;757.63;555.83;;;;;;;13.46;71.63;98851.59;5070889;28;20818;-66
2021/08/18 02:50:57;;;;;;;750.33;544.53;;;;;;;13.81;72.92;98907.91;5071429;28;20437;-66
2021/08/18 02:53:25;;;;;;;734.70;503.03;;;;;;;13.81;73.14;98910.59;5070321;28;21062;-66
2021/08/18 02:55:55;;;;;;;702.30;421.87;;;;;;;13.70;73.88;98894.75;5071236;28;20915;-67
2021/08/18 02:58:23;;;;;;;750.60;528.87;;;;;;;13.80;72.77;98900.81;5070533;28;20435;-66
2021/08/18 03:00:51;;;;;;;766.03;573.80;;;;;;;13.72;75.67;98898.09;5071223;28;20753;-66
2021/08/18 03:03:19;;;;;;;753.47;548.73;;;;;;;13.80;74.10;98903.53;5070713;28;20957;-66
2021/08/18 03:05:47;;;;;;;743.00;525.63;;;;;;;13.82;74.64;98898.78;5070764;28;20436;-69
2021/08/18 03:08:16;;;;;;;703.73;429.23;;;;;;;13.77;74.95;98884.09;5069393;28;20447;-69
2021/08/18 03:10:44;;;;;;;723.10;473.93;;;;;;;13.79;77.73;98898.28;5063888;28;21162;-69
2021/08/18 03:13:13;;;;;;;718.40;464.83;;;;;;;13.81;76.79;98897.09;5066145;28;20446;-69
2021/08/18 03:15:41;;;;;;;706.13;438.20;;;;;;;13.90;76.55;98893.38;5067738;28;20436;-69
2021/08/18 03:18:14;;;;;;;760.10;567.00;;;;;;;13.86;76.65;98892.03;5064218;28;20964;-69
2021/08/18 03:20:42;;;;;;;767.97;590.33;;;;;;;13.88;77.31;98886.47;5064824;28;20458;-66
2021/08/18 03:23:11;;;;;;;759.90;573.30;;;;;;;13.99;76.12;98895.03;5069908;28;20471;-69
2021/08/18 03:25:39;;;;;;;769.70;595.40;;;;;;;14.02;76.53;98904.66;5074937;28;20464;-69
2021/08/18 03:28:07;;;;;;;779.53;620.87;;;;;;;14.04;76.78;98894.53;5066378;28;20945;-69
2021/08/18 03:30:37;;;;;;;764.03;588.60;;;;;;;14.05;76.39;98882.72;5070377;28;20480;-70
2021/08/18 03:33:05;;;;;;;780.63;625.57;;;;;;;14.14;76.70;98887.09;5070805;28;20947;-69
2021/08/18 03:35:33;;;;;;;789.80;640.57;;;;;;;14.17;75.90;98884.06;5070148;28;20454;-70
2021/08/18 03:38:01;;;;;;;771.00;585.30;;;;;;;14.20;76.04;98874.75;5071995;28;20947;-69
2021/08/18 03:40:29;;;;;;;774.13;591.43;;;;;;;14.22;76.91;98883.53;5068727;28;20998;-69
2021/08/18 03:42:57;;;;;;;773.33;593.33;;;;;;;13.96;77.70;98829.78;5055568;28;20442;-69
2021/08/18 03:45:26;;;;;;;722.40;466.13;;;;;;;14.26;77.10;98885.69;5065222;28;20443;-69
2021/08/18 03:47:55;;;;;;;769.67;580.37;;;;;;;14.35;76.27;98878.41;5068344;28;20454;-69
2021/08/18 03:50:24;;;;;;;727.90;478.50;;;;;;;14.38;75.87;98869.13;5065907;28;20471;-70
2021/08/18 03:52:52;;;;;;;743.57;529.17;;;;;;;14.43;76.48;98870.34;5064264;28;20443;-69
2021/08/18 03:55:21;;;;;;;772.70;584.13;;;;;;;14.44;75.08;98868.47;5063761;28;20431;-69
2021/08/18 03:57:49;;;;;;;755.20;556.27;;;;;;;14.47;76.44;98877.06;5068213;28;20469;-69
2021/08/18 04:00:21;;;;;;;768.37;569.03;;;;;;;14.47;75.81;98860.84;5070138;22;20449;-70
2021/08/18 04:02:49;;;;;;;775.47;599.87;;;;;;;14.49;75.46;98866.94;4984007;28;20467;-70
2021/08/18 04:05:20;;;;;;;764.67;579.13;;;;;;;14.54;75.28;98859.13;4988438;28;20441;-71
2021/08/18 04:07:48;;;;;;;785.77;615.50;;;;;;;14.51;74.11;98847.84;4985119;28;20850;-70
2021/08/18 04:10:20;;;;;;;760.03;562.10;;;;;;;14.40;75.83;98830.13;4986263;28;20513;-71
2021/08/18 04:12:53;;;;;;;739.57;514.83;;;;;;;14.63;75.59;98864.50;4985504;28;20451;-70
2021/08/18 04:15:22;;;;;;;725.80;489.27;;;;;;;14.44;76.66;98828.81;4987925;28;20485;-70
2021/08/18 04:17:50;;;;;;;714.03;453.07;;;;;;;14.66;75.54;98847.91;4989245;28;20469;-70
2021/08/18 04:20:21;;;;;;;703.47;427.20;;;;;;;14.67;76.16;98852.31;4985290;28;20454;-70
2021/08/18 04:22:49;;;;;;;709.27;436.13;;;;;;;14.67;74.91;98845.03;4988889;28;20458;-70
2021/08/18 04:25:19;;;;;;;673.13;367.03;;;;;;;14.69;76.04;98845.69;4991114;28;20501;-70
2021/08/18 04:27:48;;;;;;;722.80;473.97;;;;;;;14.73;74.63;98838.13;4989338;28;20464;-70
2021/08/18 04:30:17;;;;;;;697.97;418.40;;;;;;;14.69;77.08;98836.75;4988506;28;20993;-71
2021/08/18 04:32:45;;;;;;;707.33;422.77;;;;;;;14.54;77.48;98813.22;4987460;28;20443;-70
2021/08/18 04:35:15;;;;;;;759.63;458.70;;;;;;;14.71;76.84;98840.16;4988930;28;20440;-70
2021/08/18 04:37:48;;;;;;;690.03;373.37;;;;;;;14.78;76.22;98824.91;4987611;28;20454;-71
2021/08/18 04:40:16;;;;;;;693.73;379.53;;;;;;;14.70;77.59;98800.66;4985535;28;20459;-71
2021/08/18 04:42:47;;;;;;;675.70;366.53;;;;;;;14.80;78.21;98807.50;4990453;28;20443;-71
2021/08/18 04:45:17;;;;;;;688.73;388.67;;;;;;;14.85;78.71;98809.66;4987148;28;20482;-71
2021/08/18 04:47:48;;;;;;;672.57;372.07;;;;;;;14.91;79.01;98814.34;4986170;28;20442;-71
2021/08/18 04:50:17;;;;;;;673.53;373.90;;;;;;;14.98;78.32;98815.28;4986091;28;20844;-71
2021/08/18 04:52:49;;;;;;;691.13;389.00;;;;;;;15.05;78.96;98816.28;4972565;28;20467;-71
2021/08/18 04:55:50;;;;;;;677.87;384.13;;;;;;;15.06;78.92;98809.84;4985299;28;20467;-71
2021/08/18 04:58:18;;;;;;;709.13;437.13;;;;;;;15.02;79.02;98805.81;4981359;28;21782;-71
2021/08/18 05:00:46;;;;;;;699.37;413.50;;;;;;;15.03;77.25;98794.00;4982492;28;20479;-71
2021/08/18 05:03:15;;;;;;;728.23;484.23;;;;;;;15.21;76.71;98813.44;4984706;28;20451;-71
2021/08/18 05:05:46;;;;;;;724.60;479.23;;;;;;;15.25;76.67;98804.94;4988062;28;20446;-71
2021/08/18 05:08:15;;;;;;;723.00;480.37;;;;;;;15.26;78.68;98817.44;4986798;28;20862;-71
2021/08/18 05:10:43;;;;;;;725.97;483.93;;;;;;;15.30;79.15;98813.34;5007732;28;20478;-71
2021/08/18 05:13:11;;;;;;;717.23;459.27;;;;;;;15.33;76.83;98807.63;5012015;28;20438;-71
2021/08/18 05:15:40;;;;;;;695.40;404.83;;;;;;;15.33;78.60;98813.88;5013737;28;20814;-71
2021/08/18 05:18:08;;;;;;;678.97;375.13;;;;;;;15.27;77.63;98803.75;5012598;28;20524;-71
2021/08/18 05:20:36;;;;;;;676.77;376.47;;;;;;;15.33;77.28;98807.63;5012487;28;20439;-71
2021/08/18 05:23:04;;;;;;;690.63;392.33;;;;;;;15.37;78.20;98817.03;5013034;28;20441;-71
2021/08/18 05:25:34;;;;;;;686.80;391.97;;;;;;;15.39;77.89;98807.72;5012453;28;20449;-70
2021/08/18 05:28:08;;;;;;;696.33;410.27;;;;;;;15.42;78.38;98810.06;5013543;28;20825;-70
2021/08/18 05:30:36;;;;;;;711.33;443.00;;;;;;;15.46;77.96;98814.06;4991837;28;20467;-72
2021/08/18 05:33:04;;;;;;;714.93;447.47;;;;;;;15.45;78.03;98801.56;4992783;28;20443;-71
2021/08/18 05:35:37;;;;;;;673.90;370.23;;;;;;;15.51;76.84;98808.94;4994272;28;20447;-72
2021/08/18 05:38:05;;;;;;;711.27;439.43;;;;;;;15.51;76.70;98802.69;4983746;28;20926;-72
2021/08/18 05:40:35;;;;;;;694.37;410.80;;;;;;;15.53;76.70;98797.94;4984846;28;20447;-70
2021/08/18 05:43:03;;;;;;;747.47;521.63;;;;;;;15.59;76.23;98802.66;4991025;28;20501;-72
2021/08/18 05:45:31;;;;;;;740.77;513.47;;;;;;;15.51;77.20;98786.47;4986242;28;20880;-72
2021/08/18 05:47:59;;;;;;;678.63;382.90;;;;;;;15.11;76.24;98707.41;4983033;28;20530;-72
2021/08/18 05:50:27;;;;;;;678.40;382.90;;;;;;;15.64;75.59;98781.31;4986911;28;20476;-72
2021/08/18 05:52:55;;;;;;;729.63;479.77;;;;;;;15.60;76.51;98779.97;4990989;28;20500;-72
2021/08/18 05:55:23;;;;;;;704.37;434.80;;;;;;;15.62;76.10;98777.94;4994071;28;20853;-72
2021/08/18 05:57:52;;;;;;;706.13;434.87;;;;;;;15.66;75.96;98770.31;4982940;28;20486;-72
2021/08/18 06:00:20;;;;;;;702.13;416.50;;;;;;;15.65;76.94;98774.03;4989121;28;20444;-72
2021/08/18 06:02:49;;;;;;;699.77;411.07;;;;;;;15.58;78.46;98765.78;4987550;28;20501;-71
2021/08/18 06:05:18;;;;;;;731.17;487.47;;;;;;;15.44;77.69;98734.13;4992847;28;20440;-72
2021/08/18 06:07:46;;;;;;;714.07;448.97;;;;;;;15.63;76.63;98768.81;4993831;28;20528;-72
2021/08/18 06:10:14;;;;;;;712.63;443.47;;;;;;;15.66;76.36;98773.84;4999316;28;20489;-72
2021/08/18 06:12:42;;;;;;;739.27;503.47;;;;;;;15.68;75.76;98777.22;5003207;28;20497;-72
2021/08/18 06:15:12;;;;;;;742.87;497.37;;;;;;;15.67;76.88;98780.09;4990650;28;20447;-72
2021/08/18 06:17:40;;;;;;;736.47;498.57;;;;;;;15.67;76.18;98778.22;4993120;28;20442;-72
2021/08/18 06:20:09;;;;;;;703.03;425.13;;;;;;;15.60;77.20;98761.03;4987159;28;20443;-72
2021/08/18 06:22:37;;;;;;;687.43;390.70;;;;;;;15.63;76.92;98760.69;4986918;28;20491;-72
2021/08/18 06:25:06;;;;;;;697.73;417.17;;;;;;;15.54;74.80;98726.56;4989246;28;20439;-72
2021/08/18 06:27:34;;;;;;;687.63;395.27;;;;;;;15.73;76.37;98758.53;4989629;28;20438;-72
2021/08/18 06:30:03;;;;;;;679.60;378.20;;;;;;;15.71;76.81;98759.75;4987253;28;20466;-72
2021/08/18 06:32:33;;;;;;;684.73;392.37;;;;;;;15.52;78.53;98725.91;4987623;28;20526;-72
2021/08/18 06:35:01;;;;;;;694.03;408.63;;;;;;;15.60;75.85;98722.31;4993269;28;20497;-72
2021/08/18 06:37:37;;;;;;;699.83;421.33;;;;;;;15.35;78.55;98692.81;4990013;28;20471;-72
2021/08/18 06:40:07;;;;;;;687.03;393.97;;;;;;;15.69;78.09;98740.16;4988439;28;20435;-72
2021/08/18 06:42:35;;;;;;;709.43;433.13;;;;;;;15.72;77.92;98740.63;4988521;28;20440;-72
2021/08/18 06:45:03;;;;;;;747.97;524.03;;;;;;;15.71;78.59;98738.09;4993076;28;20498;-72
2021/08/18 06:47:36;;;;;;;749.53;532.63;;;;;;;15.68;78.86;98741.19;4988284;28;20432;-72
2021/08/18 06:50:04;;;;;;;688.23;390.30;;;;;;;15.72;80.09;98739.78;4988986;28;20458;-72
2021/08/18 06:52:33;;;;;;;700.43;419.60;;;;;;;15.61;78.95;98722.16;4978157;28;20488;-72
2021/08/18 06:55:01;;;;;;;679.83;378.20;;;;;;;15.72;79.83;98737.91;4983542;28;21182;-72
2021/08/18 06:57:29;;;;;;;679.37;380.13;;;;;;;15.67;79.50;98734.09;4988152;28;20828;-72
2021/08/18 06:59:57;;;;;;;679.53;382.50;;;;;;;15.75;78.86;98728.56;4988416;28;20924;-72
2021/08/18 07:02:25;;;;;;;674.57;368.13;;;;;;;15.79;78.30;98736.13;4990958;28;20471;-72
2021/08/18 07:04:55;;;;;;;682.30;382.03;;;;;;;15.72;80.55;98737.91;4989959;28;20439;-72
2021/08/18 07:07:23;;;;;;;687.57;397.70;;;;;;;15.86;79.89;98747.03;4987720;28;20446;-71
2021/08/18 07:09:51;;;;;;;699.63;417.23;;;;;;;15.91;78.86;98738.34;5004450;28;20450;-72
2021/08/18 07:12:19;;;;;;;716.03;454.83;;;;;;;15.95;80.64;98745.09;5012016;28;20513;-72
2021/08/18 07:14:47;;;;;;;685.33;386.23;;;;;;;16.02;79.73;98743.31;5012257;28;20462;-72
2021/08/18 07:17:15;;;;;;;689.70;392.03;;;;;;;15.98;80.23;98739.31;5011904;28;20442;-72
2021/08/18 07:19:43;;;;;;;679.77;380.73;;;;;;;16.06;79.04;98733.78;5011980;28;20485;-72
2021/08/18 07:22:12;;;;;;;681.70;379.80;;;;;;;15.99;79.68;98719.31;5027174;28;20944;-71
2021/08/18 07:24:40;;;;;;;681.90;388.53;;;;;;;16.11;79.84;98736.75;5012082;28;20923;-72
2021/08/18 07:27:09;;;;;;;679.60;385.20;;;;;;;16.21;76.74;98736.47;5011550;28;20446;-71
2021/08/18 07:29:38;;;;;;;715.47;454.17;;;;;;;16.18;78.04;98732.25;5011896;28;20588;-72
2021/08/18 07:32:06;;;;;;;697.13;405.43;;;;;;;16.22;78.32;98736.25;5011682;28;20470;-72
2021/08/18 07:34:34;;;;;;;681.37;387.87;;;;;;;16.19;79.82;98738.53;5010682;28;20438;-71
2021/08/18 07:37:03;;;;;;;688.27;399.20;;;;;;;16.18;78.75;98743.09;5011638;28;20446;-72
2021/08/18 07:39:32;;;;;;;717.43;460.43;;;;;;;16.26;76.91;98740.31;5011707;28;20434;-72
2021/08/18 07:42:00;;;;;;;722.33;463.73;;;;;;;16.27;77.15;98741.16;5011752;28;20431;-72
2021/08/18 07:44:31;;;;;;;709.20;436.77;;;;;;;16.30;78.45;98730.75;5026696;28;20442;-72
2021/08/18 07:47:00;;;;;;;739.30;500.43;;;;;;;16.33;76.81;98724.97;5011355;28;20438;-72
2021/08/18 07:49:28;;;;;;;683.10;391.07;;;;;;;16.29;78.29;98723.66;5026651;28;20786;-72
2021/08/18 07:51:56;;;;;;;677.27;382.23;;;;;;;16.33;77.33;98724.13;5011481;28;20927;-72
2021/08/18 07:54:24;;;;;;;685.00;388.67;;;;;;;16.37;79.42;98725.41;5011362;28;20437;-72
2021/08/18 07:56:54;;;;;;;690.77;405.70;;;;;;;16.39;78.93;98726.91;5026622;28;20438;-71
2021/08/18 07:59:22;;;;;;;692.70;405.93;;;;;;;16.32;79.12;98711.59;5011268;28;20491;-71
2021/08/18 08:01:50;;;;;;;676.63;372.50;;;;;;;16.49;77.65;98729.28;4984111;28;20478;-72
2021/08/18 08:04:18;;;;;;;680.13;376.57;;;;;;;16.51;78.93;98729.94;5011513;28;20867;-72
2021/08/18 08:06:46;;;;;;;676.83;372.67;;;;;;;16.54;79.17;98726.03;5011393;28;20204;-72
2021/08/18 08:09:15;;;;;;;676.50;374.07;;;;;;;16.51;79.24;98731.81;5011325;28;20446;-72
2021/08/18 08:11:43;;;;;;;678.97;382.20;;;;;;;16.46;79.43;98730.53;5011246;28;20442;-71
2021/08/18 08:14:12;;;;;;;685.50;395.77;;;;;;;16.21;79.92;98704.78;5010863;28;20434;-71
2021/08/18 08:16:40;;;;;;;702.93;426.07;;;;;;;16.43;79.35;98730.91;5026323;28;20944;-71
2021/08/18 08:19:09;;;;;;;707.80;437.00;;;;;;;16.28;78.61;98705.75;5026156;28;20445;-71
2021/08/18 08:21:37;;;;;;;714.40;440.87;;;;;;;16.28;78.80;98705.75;5009890;28;20435;-72
2021/08/18 08:24:05;;;;;;;681.67;382.57;;;;;;;16.48;77.23;98743.88;5011034;28;20862;-72
2021/08/18 08:26:33;;;;;;;683.87;391.43;;;;;;;16.45;77.06;98750.53;5010876;28;20450;-72
2021/08/18 08:29:02;;;;;;;680.10;376.30;;;;;;;16.32;77.11;98734.13;5010883;28;20994;-72
2021/08/18 08:31:31;;;;;;;695.87;412.23;;;;;;;16.31;76.90;98743.28;5011369;28;20863;-72
2021/08/18 08:33:59;;;;;;;680.07;385.77;;;;;;;16.35;75.92;98741.88;5011022;28;20481;-72
2021/08/18 08:36:27;;;;;;;695.57;405.90;;;;;;;16.22;75.51;98711.88;5011219;28;20804;-72
2021/08/18 08:38:55;;;;;;;677.73;380.90;;;;;;;16.34;73.41;98725.81;5011146;28;20452;-72
2021/08/18 08:41:24;;;;;;;675.90;375.60;;;;;;;16.17;73.29;98691.84;5011010;28;20801;-72
2021/08/18 08:43:53;;;;;;;689.47;397.40;;;;;;;16.38;77.70;98741.47;5011462;28;20492;-72
2021/08/18 08:46:21;;;;;;;679.20;385.73;;;;;;;16.45;75.88;98749.69;5013054;28;20446;-72
2021/08/18 08:48:52;;;;;;;690.97;398.30;;;;;;;16.46;75.10;98754.06;5015085;28;20925;-72
2021/08/18 08:51:20;;;;;;;692.93;396.87;;;;;;;16.46;74.87;98754.06;5030038;28;21023;-72
2021/08/18 08:53:48;;;;;;;700.50;410.87;;;;;;;16.46;75.82;98754.91;5014845;28;20234;-72
2021/08/18 08:56:16;;;;;;;694.80;401.27;;;;;;;16.51;75.40;98765.16;5014761;28;20665;-72
2021/08/18 08:58:44;;;;;;;710.57;439.00;;;;;;;16.53;73.95;98751.44;5029984;28;21035;-72
2021/08/18 09:01:12;;;;;;;683.00;387.93;;;;;;;16.55;73.88;98752.09;5014276;28;20972;-72
2021/08/18 09:03:45;;;;;;;679.30;383.80;;;;;;;16.52;73.79;98760.59;5014660;28;20523;-72
2021/08/18 09:06:21;;;;;;;679.50;380.17;;;;;;;16.51;75.87;98761.63;5014233;28;20937;-71
2021/08/18 09:08:50;;;;;;;679.57;382.63;;;;;;;16.42;74.54;98759.03;5014789;28;20207;-71
2021/08/18 09:11:21;;;;;;;680.93;384.80;;;;;;;16.45;74.81;98760.50;5014533;28;20450;-72
2021/08/18 09:13:51;;;;;;;676.83;381.43;;;;;;;16.35;76.15;98771.66;5014904;28;20482;-72
2021/08/18 09:16:21;;;;;;;689.10;401.40;;;;;;;16.35;76.08;98766.25;5014570;28;20900;-72
2021/08/18 09:18:51;;;;;;;707.00;433.27;;;;;;;16.29;76.65;98764.31;5014550;28;20555;-72
2021/08/18 09:21:35;;;;;;;702.33;422.87;;;;;;;16.21;77.00;98756.25;5014597;28;20453;-72
2021/08/18 09:24:34;;;;;;;746.53;502.33;;;;;;;16.34;75.27;98778.13;5012950;28;20431;-72
2021/08/18 09:27:08;;;;;;;707.70;438.93;;;;;;;16.31;75.91;98791.19;4953465;29;20448;-72
2021/08/18 09:29:41;;;;;;;731.20;490.17;;;;;;;16.07;75.49;98752.56;4999238;28;20448;-72
2021/08/18 09:32:26;;;;;;;686.80;390.30;;;;;;;16.41;73.87;98779.03;5014151;28;20438;-72
2021/08/18 09:35:04;;;;;;;731.73;491.93;;;;;;;16.39;74.24;98783.81;4994025;28;20477;-72
2021/08/18 09:37:35;;;;;;;703.93;428.37;;;;;;;16.37;74.85;98783.16;5013855;28;20649;-72
2021/08/18 09:40:16;;;;;;;689.87;408.20;;;;;;;16.45;73.96;98785.75;5014031;28;21158;-72
2021/08/18 09:42:44;;;;;;;700.17;424.57;;;;;;;16.51;74.02;98791.44;5029126;28;20465;-72
2021/08/18 09:45:19;;;;;;;730.07;482.20;;;;;;;16.60;73.73;98787.59;5013983;28;20492;-72
2021/08/18 09:47:55;;;;;;;680.10;382.13;;;;;;;16.47;74.87;98790.97;5013462;28;20449;-72
2021/08/18 09:50:25;;;;;;;677.67;381.87;;;;;;;16.36;76.41;98794.19;5013921;28;20947;-71
2021/08/18 09:53:05;;;;;;;691.53;410.37;;;;;;;16.34;75.76;98797.06;5013916;28;20470;-72
2021/08/18 09:55:33;;;;;;;682.00;383.10;;;;;;;16.39;75.25;98794.63;5013765;28;20233;-71
2021/08/18 09:58:03;;;;;;;692.93;411.77;;;;;;;16.34;73.95;98774.56;5012452;28;20669;-71
2021/08/18 10:00:31;;;;;;;706.33;432.23;;;;;;;16.41;75.31;98808.00;5013569;28;20208;-72
2021/08/18 10:03:00;;;;;;;743.67;511.97;;;;;;;16.33;76.84;98799.97;5013586;28;20520;-72
2021/08/18 10:05:30;;;;;;;715.97;453.57;;;;;;;16.24;77.75;98798.41;5013865;28;20203;-72
2021/08/18 10:07:59;;;;;;;701.73;421.77;;;;;;;16.39;76.00;98810.06;5013445;28;20430;-72
2021/08/18 10:10:27;;;;;;;712.50;447.17;;;;;;;16.43;74.94;98823.03;5013451;28;20920;-72
2021/08/18 10:12:56;;;;;;;727.47;474.70;;;;;;;16.43;73.06;98812.19;5013587;28;20524;-72
2021/08/18 10:15:24;;;;;;;740.20;510.60;;;;;;;16.18;73.56;98775.59;5013528;28;20497;-72
2021/08/18 10:17:52;;;;;;;709.57;440.03;;;;;;;16.38;74.80;98828.19;5013356;28;20441;-71
2021/08/18 10:20:23;;;;;;;680.20;387.10;;;;;;;16.05;75.52;98780.84;5013227;28;20446;-72
2021/08/18 10:23:02;;;;;;;738.40;497.20;;;;;;;16.44;74.17;98827.41;5013366;28;20207;-71
2021/08/18 10:25:39;;;;;;;721.37;463.17;;;;;;;16.36;75.73;98832.94;5012941;28;20672;-72
2021/08/18 10:28:08;;;;;;;716.87;452.53;;;;;;;16.42;75.67;98826.78;5013091;28;20936;-72
2021/08/18 10:30:51;;;;;;;727.40;479.30;;;;;;;16.25;75.23;98771.13;5013007;28;20948;-72
2021/08/18 10:33:56;;;;;;;684.23;386.63;;;;;;;16.81;74.72;98835.59;5028154;28;20474;-72
2021/08/18 10:37:01;;;;;;;685.43;391.83;;;;;;;16.88;76.26;98841.97;4987126;28;20228;-72
2021/08/18 10:39:39;;;;;;;678.67;379.70;;;;;;;17.04;74.46;98834.41;5012957;28;20436;-72
2021/08/18 10:42:10;;;;;;;716.50;454.53;;;;;;;17.23;73.66;98842.97;5013142;28;20678;-72
2021/08/18 10:44:40;;;;;;;685.23;393.97;;;;;;;17.27;73.70;98838.81;5012752;28;20202;-72
2021/08/18 10:47:14;;;;;;;691.77;406.20;;;;;;;17.36;73.49;98845.78;5013059;28;20462;-72
2021/08/18 10:49:42;;;;;;;691.27;403.60;;;;;;;17.37;72.34;98832.03;5012564;28;20191;-72
2021/08/18 10:52:10;;;;;;;700.03;422.70;;;;;;;17.58;70.24;98841.19;5012673;28;20206;-72
2021/08/18 10:54:46;;;;;;;713.33;450.43;;;;;;;17.59;73.65;98851.03;5012522;28;20238;-72
2021/08/18 10:57:37;;;;;;;744.37;514.40;;;;;;;17.68;73.39;98850.72;5012613;28;20594;-72
2021/08/18 11:00:13;;;;;;;734.37;493.07;;;;;;;17.77;72.11;98856.00;5012365;28;20203;-72
2021/08/18 11:02:56;;;;;;;694.60;407.57;;;;;;;17.87;72.65;98851.06;5012321;28;20203;-72
2021/08/18 11:05:28;;;;;;;709.60;436.13;;;;;;;17.98;72.27;98855.94;5012505;28;20206;-72
2021/08/18 11:08:10;;;;;;;749.90;522.43;;;;;;;18.13;71.02;98853.97;5012297;28;20211;-72
2021/08/18 11:11:06;;;;;;;759.10;550.33;;;;;;;18.22;72.60;98855.50;5012173;28;20196;-72
2021/08/18 11:13:37;;;;;;;697.73;419.00;;;;;;;18.52;69.33;98852.53;5012106;28;20223;-72
2021/08/18 11:16:11;;;;;;;693.40;401.70;;;;;;;18.67;69.80;98860.56;5027635;28;20617;-72